createdAt,value
2023-05-19T00:02:20.901Z,64.80
2023-05-19T00:04:48.272Z,64.84
2023-05-19T00:07:17.927Z,64.24
2023-05-19T00:09:44.657Z,65.25
2023-05-19T00:12:11.988Z,64.67
2023-05-19T00:14:38.796Z,65.78
2023-05-19T00:17:05.590Z,65.60
2023-05-19T00:19:32.433Z,65.71
2023-05-19T00:21:59.193Z,65.88
2023-05-19T00:24:25.786Z,66.03
2023-05-19T00:26:52.229Z,65.95
2023-05-19T00:29:19.383Z,65.56
2023-05-19T00:31:46.210Z,65.84
2023-05-19T00:34:12.784Z,65.55
2023-05-19T00:36:39.281Z,66.63
2023-05-19T00:39:05.738Z,65.78
2023-05-19T00:41:32.217Z,65.75
2023-05-19T00:43:58.767Z,66.45
2023-05-19T00:46:25.373Z,67.21
2023-05-19T00:48:51.812Z,66.67
2023-05-19T00:51:18.523Z,66.82
2023-05-19T00:53:49.008Z,67.14
2023-05-19T00:56:19.385Z,67.88
2023-05-19T00:58:46.006Z,68.31
2023-05-19T01:01:16.906Z,68.36
2023-05-19T01:03:43.924Z,69.03
2023-05-19T01:06:12.038Z,69.69
2023-05-19T01:08:39.119Z,68.50
2023-05-19T01:11:06.836Z,69.12
2023-05-19T01:13:34.515Z,68.70
2023-05-19T01:16:12.728Z,68.40
2023-05-19T01:18:47.726Z,68.68
2023-05-19T01:21:32.344Z,69.62
2023-05-19T01:24:18.255Z,69.10
2023-05-19T01:27:06.482Z,69.56
2023-05-19T01:29:51.481Z,69.16
2023-05-19T01:32:19.900Z,68.65
2023-05-19T01:34:46.972Z,69.46
2023-05-19T01:37:15.301Z,69.58
2023-05-19T01:39:43.322Z,68.80
2023-05-19T01:42:10.939Z,68.96
2023-05-19T01:44:37.873Z,69.11
2023-05-19T01:47:04.816Z,69.28
2023-05-19T01:49:31.352Z,69.00
2023-05-19T01:51:57.815Z,69.53
2023-05-19T01:54:24.400Z,69.63
2023-05-19T01:57:12.333Z,69.46
2023-05-19T01:59:52.456Z,68.98
2023-05-19T02:02:43.954Z,69.16
2023-05-19T02:05:19.125Z,68.25
2023-05-19T02:07:53.755Z,69.56
2023-05-19T02:10:28.128Z,69.65
2023-05-19T02:12:56.572Z,69.69
2023-05-19T02:15:30.788Z,68.84
2023-05-19T02:18:00.170Z,69.72
2023-05-19T02:20:26.801Z,69.44
2023-05-19T02:22:53.354Z,70.68
2023-05-19T02:25:19.817Z,69.89
2023-05-19T02:27:46.376Z,70.08
2023-05-19T02:30:12.948Z,69.60
2023-05-19T02:32:39.857Z,70.51
2023-05-19T02:35:06.690Z,70.85
2023-05-19T02:37:33.167Z,70.18
2023-05-19T02:39:59.661Z,70.68
2023-05-19T02:42:26.100Z,70.33
2023-05-19T02:44:54.196Z,70.87
2023-05-19T02:47:20.716Z,70.11
2023-05-19T02:49:47.198Z,70.38
2023-05-19T02:52:13.720Z,71.06
2023-05-19T02:54:40.209Z,70.74
2023-05-19T02:57:06.849Z,71.73
2023-05-19T02:59:33.513Z,72.00
2023-05-19T03:02:01.453Z,71.47
2023-05-19T03:04:29.232Z,71.34
2023-05-19T03:06:56.043Z,71.61
2023-05-19T03:09:22.490Z,71.97
2023-05-19T03:11:48.963Z,71.91
2023-05-19T03:14:15.481Z,71.52
2023-05-19T03:16:42.204Z,72.08
2023-05-19T03:19:09.645Z,72.03
2023-05-19T03:21:36.696Z,72.69
2023-05-19T03:24:03.442Z,73.67
2023-05-19T03:26:29.926Z,74.02
2023-05-19T03:28:56.432Z,74.21
2023-05-19T03:31:22.949Z,74.52
2023-05-19T03:33:49.508Z,74.61
2023-05-19T03:36:16.049Z,74.69
2023-05-19T03:38:42.483Z,74.63
2023-05-19T03:41:08.926Z,74.03
2023-05-19T03:43:35.456Z,74.46
2023-05-19T03:46:02.146Z,76.00
2023-05-19T03:48:30.939Z,75.73
2023-05-19T03:50:58.025Z,75.46
2023-05-19T03:53:24.450Z,75.87
2023-05-19T03:55:50.900Z,75.35
2023-05-19T03:58:17.443Z,74.66
2023-05-19T04:00:43.912Z,75.77
2023-05-19T04:03:10.783Z,75.80
2023-05-19T04:05:37.481Z,76.50
2023-05-19T04:08:04.127Z,76.58
2023-05-19T04:10:30.913Z,75.50
2023-05-19T04:12:57.517Z,76.18
2023-05-19T04:15:24.016Z,76.60
2023-05-19T04:17:50.507Z,76.79
2023-05-19T04:20:17.086Z,77.56
2023-05-19T04:22:43.533Z,77.01
2023-05-19T04:25:10.246Z,76.35
2023-05-19T04:27:38.853Z,75.90
2023-05-19T04:30:06.443Z,75.26
2023-05-19T04:32:33.313Z,74.33
2023-05-19T04:34:59.881Z,74.66
2023-05-19T04:37:26.584Z,74.61
2023-05-19T04:39:54.197Z,71.43
2023-05-19T04:42:20.817Z,69.01
2023-05-19T04:44:49.085Z,68.55
2023-05-19T04:47:15.667Z,69.21
2023-05-19T04:49:42.270Z,69.34
2023-05-19T04:52:12.699Z,69.28
2023-05-19T04:54:39.826Z,68.48
2023-05-19T04:57:06.420Z,68.52
2023-05-19T04:59:33.104Z,69.36
2023-05-19T05:01:59.674Z,69.50
2023-05-19T05:04:26.196Z,68.09
2023-05-19T05:06:52.681Z,68.24
2023-05-19T05:09:19.876Z,67.76
2023-05-19T05:11:46.739Z,67.11
2023-05-19T05:14:13.500Z,65.61
2023-05-19T05:16:40.750Z,64.86
2023-05-19T05:19:07.586Z,64.58
2023-05-19T05:21:34.675Z,64.89
2023-05-19T05:24:01.401Z,65.13
2023-05-19T05:26:30.757Z,63.38
2023-05-19T05:28:57.242Z,62.51
2023-05-19T05:31:23.700Z,62.62
2023-05-19T05:33:50.345Z,62.73
2023-05-19T05:36:16.805Z,61.11
2023-05-19T05:38:43.241Z,60.89
2023-05-19T05:41:09.821Z,61.24
2023-05-19T05:43:36.311Z,61.00
2023-05-19T05:46:02.833Z,60.68
2023-05-19T05:48:29.640Z,60.93
2023-05-19T05:50:57.346Z,60.86
2023-05-19T05:53:25.958Z,59.05
2023-05-19T05:55:53.583Z,58.21
2023-05-19T05:58:21.234Z,59.84
2023-05-19T06:00:49.257Z,60.37
2023-05-19T06:03:16.899Z,59.25
2023-05-19T06:05:43.591Z,59.41
2023-05-19T06:08:10.100Z,60.09
2023-05-19T06:10:38.678Z,59.57
2023-05-19T06:13:05.228Z,58.73
2023-05-19T06:15:31.783Z,58.95
2023-05-19T06:17:59.058Z,60.22
2023-05-19T06:20:25.706Z,57.93
2023-05-19T06:22:52.190Z,58.00
2023-05-19T06:25:18.799Z,57.06
2023-05-19T06:27:45.330Z,57.50
2023-05-19T06:30:12.742Z,55.47
2023-05-19T06:32:39.265Z,54.82
2023-05-19T06:35:06.180Z,54.46
2023-05-19T06:37:32.690Z,55.27
2023-05-19T06:39:59.303Z,55.16
2023-05-19T06:42:25.975Z,53.35
2023-05-19T06:44:53.170Z,53.89
2023-05-19T06:47:19.988Z,53.17
2023-05-19T06:49:46.598Z,54.42
2023-05-19T06:52:13.058Z,53.33
2023-05-19T06:54:39.620Z,52.72
2023-05-19T06:57:06.401Z,52.58
2023-05-19T06:59:32.930Z,51.81
2023-05-19T07:02:01.538Z,51.74
2023-05-19T07:04:28.073Z,51.31
2023-05-19T07:06:54.950Z,52.07
2023-05-19T07:09:21.433Z,51.77
2023-05-19T07:11:48.470Z,50.73
2023-05-19T07:14:17.644Z,50.80
2023-05-19T07:16:44.255Z,50.78
2023-05-19T07:19:10.831Z,49.87
2023-05-19T07:21:37.348Z,50.11
2023-05-19T07:24:04.011Z,49.72
2023-05-19T07:26:30.556Z,49.99
2023-05-19T07:28:57.854Z,48.69
2023-05-19T07:31:24.417Z,49.39
2023-05-19T07:33:53.009Z,48.55
2023-05-19T07:36:20.894Z,48.58
2023-05-19T07:38:47.452Z,48.51
2023-05-19T07:41:14.100Z,47.51
2023-05-19T07:43:40.829Z,48.97
2023-05-19T07:46:07.723Z,48.96
2023-05-19T07:48:34.227Z,48.83
2023-05-19T07:51:00.715Z,48.43
2023-05-19T07:53:28.060Z,47.50
2023-05-19T07:55:55.869Z,47.81
2023-05-19T07:58:23.883Z,48.35
2023-05-19T08:00:50.451Z,47.57
2023-05-19T08:03:18.267Z,47.73
2023-05-19T08:05:45.490Z,48.23
2023-05-19T08:08:12.750Z,48.15
2023-05-19T08:10:43.319Z,46.78
2023-05-19T08:13:09.748Z,48.00
2023-05-19T08:15:39.229Z,46.57
2023-05-19T08:18:05.755Z,46.22
2023-05-19T08:20:32.882Z,47.13
2023-05-19T08:22:59.610Z,47.20
2023-05-19T08:25:26.088Z,46.24
2023-05-19T08:27:52.552Z,46.97
2023-05-19T08:30:19.073Z,47.46
2023-05-19T08:32:45.634Z,45.97
2023-05-19T08:35:12.193Z,47.59
2023-05-19T08:37:38.808Z,46.90
2023-05-19T08:40:06.287Z,46.94
2023-05-19T08:42:33.178Z,46.44
2023-05-19T08:45:00.816Z,46.26
2023-05-19T08:47:27.926Z,45.46
2023-05-19T08:50:03.438Z,46.80
2023-05-19T08:52:38.318Z,45.42
2023-05-19T08:55:21.812Z,45.17
2023-05-19T08:57:49.198Z,45.97
2023-05-19T09:00:16.464Z,44.99
2023-05-19T09:02:50.679Z,45.34
2023-05-19T09:05:27.837Z,45.03
2023-05-19T09:07:55.018Z,46.66
2023-05-19T09:10:21.748Z,45.77
2023-05-19T09:12:49.579Z,44.16
2023-05-19T09:15:18.607Z,43.37
2023-05-19T09:17:48.238Z,42.23
2023-05-19T09:20:15.841Z,40.21
2023-05-19T09:22:45.244Z,43.07
2023-05-19T09:25:23.186Z,42.55
2023-05-19T09:27:50.526Z,41.75
2023-05-19T09:30:17.762Z,42.77
2023-05-19T09:32:44.863Z,44.23
2023-05-19T09:35:12.862Z,42.94
2023-05-19T09:37:40.647Z,42.76
2023-05-19T09:40:13.561Z,42.25
2023-05-19T09:42:41.331Z,42.11
2023-05-19T09:45:11.510Z,42.03
2023-05-19T09:47:40.264Z,42.63
2023-05-19T09:50:12.343Z,41.50
2023-05-19T09:52:39.550Z,42.01
2023-05-19T09:55:09.501Z,44.91
2023-05-19T09:57:37.479Z,43.79
2023-05-19T10:00:12.252Z,41.03
2023-05-19T10:02:43.096Z,42.02
2023-05-19T10:05:13.681Z,39.64
2023-05-19T10:07:40.574Z,40.90
2023-05-19T10:10:09.590Z,41.44
2023-05-19T10:12:37.233Z,43.01
2023-05-19T10:15:04.150Z,41.22
2023-05-19T10:17:30.897Z,40.66
2023-05-19T10:19:57.855Z,42.55
2023-05-19T10:22:24.383Z,43.07
2023-05-19T10:24:50.812Z,41.15
2023-05-19T10:27:18.039Z,41.60
2023-05-19T10:29:49.291Z,40.29
2023-05-19T10:32:19.986Z,40.40
2023-05-19T10:35:14.537Z,41.79
2023-05-19T10:37:55.367Z,41.73
2023-05-19T10:40:28.145Z,40.31
2023-05-19T10:43:01.288Z,38.43
2023-05-19T10:45:31.719Z,38.35
2023-05-19T10:47:58.410Z,38.26
2023-05-19T10:50:25.057Z,38.94
2023-05-19T10:52:56.053Z,39.12
2023-05-19T10:55:56.033Z,39.36
2023-05-19T10:58:44.381Z,39.24
2023-05-19T11:01:14.566Z,38.50
2023-05-19T11:03:47.324Z,38.91
2023-05-19T11:06:33.131Z,39.37
2023-05-19T11:09:01.409Z,38.65
2023-05-19T11:11:50.846Z,38.38
2023-05-19T11:14:22.951Z,38.57
2023-05-19T11:16:52.217Z,40.18
2023-05-19T11:19:27.919Z,39.58
2023-05-19T11:21:56.904Z,41.12
2023-05-19T11:24:42.245Z,38.85
2023-05-19T11:27:31.399Z,39.92
2023-05-19T11:30:06.536Z,39.48
2023-05-19T11:32:34.391Z,39.78
2023-05-19T11:35:01.777Z,39.09
2023-05-19T11:37:31.249Z,39.95
2023-05-19T11:39:58.091Z,42.31
2023-05-19T11:42:24.656Z,40.74
2023-05-19T11:44:57.874Z,40.14
2023-05-19T11:47:24.394Z,39.33
2023-05-19T11:49:54.758Z,39.84
2023-05-19T11:52:22.461Z,39.07
2023-05-19T11:54:51.539Z,39.42
2023-05-19T11:57:21.104Z,38.11
2023-05-19T11:59:52.345Z,38.08
2023-05-19T12:02:27.345Z,38.16
2023-05-19T12:04:54.724Z,38.63
2023-05-19T12:07:24.727Z,38.10
2023-05-19T12:09:52.261Z,38.87
2023-05-19T12:12:20.008Z,38.27
2023-05-19T12:14:47.688Z,38.13
2023-05-19T12:17:16.465Z,38.32
2023-05-19T12:19:48.959Z,43.93
2023-05-19T12:22:16.921Z,39.72
2023-05-19T12:24:44.439Z,38.71
2023-05-19T12:27:17.850Z,37.78
2023-05-19T12:29:52.670Z,39.02
2023-05-19T12:32:22.943Z,38.04
2023-05-19T12:34:49.971Z,40.46
2023-05-19T12:37:16.641Z,38.47
2023-05-19T12:39:43.715Z,40.16
2023-05-19T12:42:12.357Z,36.83
2023-05-19T12:44:42.543Z,37.84
2023-05-19T12:47:09.055Z,38.56
2023-05-19T12:49:35.620Z,37.76
2023-05-19T12:52:10.543Z,37.35
2023-05-19T12:54:40.350Z,36.83
2023-05-19T12:57:07.080Z,37.92
2023-05-19T12:59:38.877Z,37.95
2023-05-19T13:02:06.581Z,40.61
2023-05-19T13:04:33.278Z,38.59
2023-05-19T13:06:59.801Z,38.96
2023-05-19T13:09:27.864Z,37.39
2023-05-19T13:11:54.742Z,38.91
2023-05-19T13:14:24.520Z,40.32
2023-05-19T13:16:51.045Z,37.33
2023-05-19T13:19:25.518Z,39.70
2023-05-19T13:21:52.594Z,38.74
2023-05-19T13:24:19.049Z,39.80
2023-05-19T13:26:48.788Z,38.88
2023-05-19T13:29:15.394Z,39.27
2023-05-19T13:31:41.937Z,37.87
2023-05-19T13:34:08.526Z,37.80
2023-05-19T13:36:39.088Z,38.11
2023-05-19T13:39:05.936Z,38.37
2023-05-19T13:41:32.804Z,38.51
2023-05-19T13:43:59.631Z,39.67
2023-05-19T13:46:36.687Z,39.89
2023-05-19T13:49:11.084Z,39.73
2023-05-19T13:51:37.650Z,38.08
2023-05-19T13:54:04.939Z,38.31
2023-05-19T13:56:31.740Z,39.27
2023-05-19T13:58:59.915Z,39.63
2023-05-19T14:01:27.551Z,38.82
2023-05-19T14:03:54.132Z,38.57
2023-05-19T14:06:20.682Z,39.49
2023-05-19T14:08:47.158Z,40.61
2023-05-19T14:11:21.532Z,38.52
2023-05-19T14:13:52.663Z,40.06
2023-05-19T14:16:20.422Z,39.94
2023-05-19T14:18:47.098Z,38.46
2023-05-19T14:21:14.169Z,37.83
2023-05-19T14:23:40.711Z,39.03
2023-05-19T14:26:07.243Z,40.35
2023-05-19T14:28:33.840Z,38.60
2023-05-19T14:31:00.384Z,39.93
2023-05-19T14:33:26.874Z,39.38
2023-05-19T14:35:53.488Z,39.29
2023-05-19T14:38:19.935Z,39.53
2023-05-19T14:40:48.454Z,40.13
2023-05-19T14:43:14.949Z,39.68
2023-05-19T14:45:44.000Z,41.36
2023-05-19T14:48:13.678Z,40.01
2023-05-19T14:50:42.790Z,41.68
2023-05-19T14:53:09.532Z,40.13
2023-05-19T14:55:41.177Z,40.32
2023-05-19T14:58:15.895Z,40.04
2023-05-19T15:00:47.687Z,44.16
2023-05-19T15:03:17.044Z,38.82
2023-05-19T15:05:46.684Z,38.15
2023-05-19T15:08:13.313Z,40.34
2023-05-19T15:10:39.836Z,39.61
2023-05-19T15:13:06.287Z,40.50
2023-05-19T15:15:32.785Z,39.97
2023-05-19T15:17:59.455Z,40.86
2023-05-19T15:20:27.457Z,39.26
2023-05-19T15:22:55.851Z,40.88
2023-05-19T15:25:22.309Z,41.73
2023-05-19T15:27:48.895Z,42.54
2023-05-19T15:30:17.898Z,40.29
2023-05-19T15:32:44.392Z,42.44
2023-05-19T15:35:10.874Z,42.14
2023-05-19T15:37:37.330Z,41.30
2023-05-19T15:40:04.484Z,41.66
2023-05-19T15:42:30.982Z,41.23
2023-05-19T15:44:57.504Z,40.93
2023-05-19T15:47:23.946Z,41.48
2023-05-19T15:49:50.380Z,41.61
2023-05-19T15:52:16.976Z,43.05
2023-05-19T15:54:44.764Z,42.16
2023-05-19T15:57:11.297Z,43.57
2023-05-19T15:59:37.849Z,43.06
2023-05-19T16:02:04.420Z,44.47
2023-05-19T16:04:33.871Z,43.42
2023-05-19T16:07:00.400Z,43.44
2023-05-19T16:09:27.989Z,45.13
2023-05-19T16:11:58.338Z,43.72
2023-05-19T16:14:27.497Z,43.91
2023-05-19T16:16:54.044Z,43.78
2023-05-19T16:19:23.966Z,44.02
2023-05-19T16:21:53.352Z,44.67
2023-05-19T16:24:19.821Z,43.66
2023-05-19T16:26:46.418Z,43.43
2023-05-19T16:29:18.347Z,44.02
2023-05-19T16:31:50.368Z,44.00
2023-05-19T16:34:16.869Z,44.32
2023-05-19T16:36:43.349Z,44.66
2023-05-19T16:39:09.896Z,44.02
2023-05-19T16:41:36.649Z,44.33
2023-05-19T16:44:03.188Z,44.18
2023-05-19T16:46:31.484Z,44.38
2023-05-19T16:48:58.226Z,44.48
2023-05-19T16:51:24.711Z,43.62
2023-05-19T16:53:51.222Z,43.59
2023-05-19T16:56:17.723Z,43.22
2023-05-19T16:58:44.264Z,44.78
2023-05-19T17:01:11.905Z,43.92
2023-05-19T17:03:38.413Z,42.92
2023-05-19T17:06:04.916Z,43.50
2023-05-19T17:08:31.421Z,43.86
2023-05-19T17:10:57.856Z,45.97
2023-05-19T17:13:24.368Z,45.41
2023-05-19T17:15:52.563Z,45.79
2023-05-19T17:18:19.342Z,46.08
2023-05-19T17:20:45.815Z,46.03
2023-05-19T17:23:12.642Z,46.32
2023-05-19T17:25:39.090Z,47.31
2023-05-19T17:28:07.496Z,46.59
2023-05-19T17:30:34.727Z,46.56
2023-05-19T17:33:01.454Z,45.61
2023-05-19T17:35:28.607Z,48.70
2023-05-19T17:37:55.490Z,45.89
2023-05-19T17:40:22.053Z,45.04
2023-05-19T17:42:48.654Z,43.72
2023-05-19T17:45:15.372Z,45.76
2023-05-19T17:47:41.878Z,45.70
2023-05-19T17:50:09.046Z,44.16
2023-05-19T17:52:36.139Z,43.42
2023-05-19T17:55:03.032Z,44.52
2023-05-19T17:57:30.980Z,44.94
2023-05-19T17:59:57.721Z,45.16
2023-05-19T18:02:24.445Z,45.76
2023-05-19T18:04:51.083Z,45.99
2023-05-19T18:07:18.548Z,46.93
2023-05-19T18:09:46.386Z,46.60
2023-05-19T18:12:12.876Z,46.99
2023-05-19T18:14:39.620Z,47.90
2023-05-19T18:17:06.172Z,48.20
2023-05-19T18:19:32.638Z,48.08
2023-05-19T18:21:59.155Z,48.32
2023-05-19T18:24:25.726Z,47.98
2023-05-19T18:26:52.176Z,48.00
2023-05-19T18:29:18.669Z,48.24
2023-05-19T18:31:45.229Z,48.55
2023-05-19T18:34:12.150Z,49.52
2023-05-19T18:36:38.644Z,49.19
2023-05-19T18:39:05.130Z,49.16
2023-05-19T18:41:32.027Z,48.97
2023-05-19T18:44:01.368Z,49.71
2023-05-19T18:46:28.029Z,49.76
2023-05-19T18:48:54.573Z,49.73
2023-05-19T18:51:21.755Z,50.15
2023-05-19T18:53:50.065Z,49.78
2023-05-19T18:56:25.072Z,50.47
2023-05-19T18:58:52.273Z,50.48
2023-05-19T19:01:18.850Z,50.83
2023-05-19T19:03:48.365Z,50.51
2023-05-19T19:06:17.204Z,50.83
2023-05-19T19:08:44.384Z,51.06
2023-05-19T19:11:11.316Z,50.97
2023-05-19T19:13:38.323Z,51.24
2023-05-19T19:16:05.185Z,51.58
2023-05-19T19:18:31.774Z,51.74
2023-05-19T19:20:59.619Z,51.98
2023-05-19T19:23:26.135Z,51.81
2023-05-19T19:25:53.378Z,52.37
2023-05-19T19:28:19.848Z,52.42
2023-05-19T19:30:46.475Z,52.39
2023-05-19T19:33:13.010Z,52.66
2023-05-19T19:35:39.628Z,52.42
2023-05-19T19:38:06.119Z,53.04
2023-05-19T19:40:35.766Z,53.00
2023-05-19T19:43:02.378Z,53.20
2023-05-19T19:45:28.866Z,53.03
2023-05-19T19:47:55.477Z,52.88
2023-05-19T19:50:22.011Z,52.68
2023-05-19T19:52:48.542Z,52.62
2023-05-19T19:55:18.089Z,53.19
2023-05-19T19:57:47.057Z,53.12
2023-05-19T20:00:14.124Z,53.35
2023-05-19T20:02:51.697Z,53.18
2023-05-19T20:05:27.258Z,53.59
2023-05-19T20:07:54.009Z,53.55
2023-05-19T20:10:23.266Z,53.62
2023-05-19T20:12:50.587Z,53.72
2023-05-19T20:15:17.279Z,54.51
2023-05-19T20:17:46.073Z,54.29
2023-05-19T20:20:13.044Z,54.88
2023-05-19T20:22:39.592Z,54.71
2023-05-19T20:25:06.539Z,55.33
2023-05-19T20:27:35.770Z,55.35
2023-05-19T20:30:02.267Z,55.11
2023-05-19T20:32:28.796Z,55.03
2023-05-19T20:34:55.551Z,54.84
2023-05-19T20:37:22.337Z,55.13
2023-05-19T20:39:48.907Z,55.04
2023-05-19T20:42:15.436Z,55.85
2023-05-19T20:44:42.677Z,55.95
2023-05-19T20:47:09.173Z,56.37
2023-05-19T20:49:35.967Z,55.53
2023-05-19T20:52:02.452Z,55.45
2023-05-19T20:54:28.975Z,56.33
2023-05-19T20:56:55.555Z,56.61
2023-05-19T20:59:22.046Z,55.64
2023-05-19T21:01:48.660Z,56.00
2023-05-19T21:04:15.289Z,56.29
2023-05-19T21:06:41.817Z,56.29
2023-05-19T21:09:08.684Z,56.27
2023-05-19T21:11:35.539Z,56.68
2023-05-19T21:14:04.858Z,56.20
2023-05-19T21:16:31.876Z,56.46
2023-05-19T21:18:58.504Z,56.33
2023-05-19T21:21:25.313Z,56.94
2023-05-19T21:23:51.949Z,57.14
2023-05-19T21:26:18.407Z,56.80
2023-05-19T21:28:44.921Z,56.84
2023-05-19T21:31:11.539Z,57.31
2023-05-19T21:33:39.638Z,57.12
2023-05-19T21:36:06.372Z,57.09
2023-05-19T21:38:32.900Z,56.85
2023-05-19T21:40:59.402Z,56.79
2023-05-19T21:43:25.989Z,57.05
2023-05-19T21:45:52.556Z,57.00
2023-05-19T21:48:19.220Z,57.30
2023-05-19T21:50:45.738Z,56.98
2023-05-19T21:53:12.194Z,56.54
2023-05-19T21:55:39.338Z,56.98
2023-05-19T21:58:08.424Z,56.77
2023-05-19T22:00:36.682Z,56.07
2023-05-19T22:03:03.532Z,56.36
2023-05-19T22:05:33.788Z,55.08
2023-05-19T22:08:00.232Z,55.18
2023-05-19T22:10:26.723Z,54.84
2023-05-19T22:12:53.179Z,55.21
2023-05-19T22:15:19.698Z,54.88
2023-05-19T22:17:46.234Z,54.72
2023-05-19T22:20:12.912Z,54.54
2023-05-19T22:22:39.359Z,54.45
2023-05-19T22:25:07.041Z,54.50
2023-05-19T22:27:33.584Z,54.86
2023-05-19T22:30:00.043Z,55.28
2023-05-19T22:32:26.664Z,54.84
2023-05-19T22:34:53.229Z,55.06
2023-05-19T22:37:23.996Z,55.26
2023-05-19T22:39:51.131Z,54.95
2023-05-19T22:42:18.477Z,55.59
2023-05-19T22:44:45.787Z,55.12
2023-05-19T22:47:15.397Z,54.87
2023-05-19T22:49:42.396Z,55.11
2023-05-19T22:52:12.659Z,55.20
2023-05-19T22:54:39.471Z,54.98
2023-05-19T22:57:06.339Z,55.31
2023-05-19T22:59:32.995Z,55.46
2023-05-19T23:01:59.490Z,54.66
2023-05-19T23:04:28.942Z,54.60
2023-05-19T23:06:55.661Z,55.07
2023-05-19T23:09:22.170Z,54.77
2023-05-19T23:11:48.716Z,54.49
2023-05-19T23:14:15.283Z,54.42
2023-05-19T23:16:41.826Z,54.71
2023-05-19T23:19:08.324Z,54.44
2023-05-19T23:21:36.313Z,54.77
2023-05-19T23:24:02.840Z,53.33
2023-05-19T23:26:29.303Z,53.86
2023-05-19T23:28:58.578Z,54.70
2023-05-19T23:31:25.235Z,53.68
2023-05-19T23:33:51.747Z,53.82
2023-05-19T23:36:19.119Z,54.45
2023-05-19T23:38:45.718Z,54.02
2023-05-19T23:41:12.212Z,53.49
2023-05-19T23:43:39.271Z,54.23
2023-05-19T23:46:08.815Z,54.42
2023-05-19T23:48:36.521Z,54.50
2023-05-19T23:51:03.109Z,54.11
2023-05-19T23:53:32.881Z,54.46
2023-05-19T23:55:59.322Z,54.32
2023-05-19T23:58:25.932Z,54.51
